Comodoro Arturo Merino Benítez International Airport
SCEL : rendu visible

Aérodrome :











RETROUVEZ-NOUS SUR...

 
LOGIN :

S'inscrire | Disclaimer

   EN    FR    IT 

 









Légende :    VFR   VFR Marginal   IFR   IFR Intensif   IFR Très Intensif
Visi : 
Plafond : 
>= 8 km
>= 3000ft
5 à 8 km
1000 à 3000 ft
1500m à 5 km
500 à 1000 ft
800 à 1500m
200 à 500 ft
< 800m
< 200 ft
Symboles :   Orages  Brouillard  Fortes neiges  Fortes précipitations  Vent > 20 kt






- Altitude de l'aérodrome : 1555 ft
- Code IATA : SCL


SCEL - Comodoro Arturo Merino Benítez International

DERNIER METAR :
  • 090800Z 16007KT 7000 BKN004 12/11 Q1016 TEMPO 5000 BR

METARs EXPIRÉS :
  • 090700Z AUTO 16006KT 9000 FEW004/// 11/10 Q1016 NOSIG
  • 090600Z AUTO 16007KT 9999 NCD 12/10 Q1016 NOSIG

TAF TAF SCEL
Valide du 09 à 06h jusqu'au 10 à 06h UTC


090404Z 0906/1006 15004KT CAVOK TX25/0919Z TN09/0911Z
TEMPO 0909/0914 VRB02KT 4000 BR FEW003 BKN008
BECMG 0916/0918 19010KT
BECMG 1001/1003 15004KT



MET'MAP, la Météo Aéronautique d'un coup d'oeil ! - Copyright ORBIFLY Décembre 2007 - Disclaimer

ORBIFLY MET'MAP TEAM :

Programmation & Développement : Alexandra Zaïnal
Sur une idée originale de : Baudouin d'Aumeries
Assistance à la programmation : Marc-Olivier Méhu
Soutien technique & logistique : Manuel Goepfert

Contact : metmap@orbifly.com




SOURCES & CREDITS :

   NOAA       Earth
Advisory